Time;durP1;ratioP1;P1;durP2;ratioP2;P2;SDS_P1;SDS_P2;PMS_P1;PMS_P2;Temp;Humidity;BMP_temperature;BMP_pressure;BME280_temperature;BME280_humidity;BME280_pressure;Samples;Min_cycle;Max_cycle;Signal;HPM_P1;HPM_P2
2021/07/30 00:00:05;;;;;;;4.23;3.10;;;;;;;14.67;97.97;100327.06;5005804;28;20216;-73
2021/07/30 00:02:32;;;;;;;4.63;3.53;;;;;;;14.61;95.94;100336.97;4996451;28;20245;-73
2021/07/30 00:04:58;;;;;;;4.80;3.70;;;;;;;14.51;96.80;100337.38;4998639;28;20197;-74
2021/07/30 00:07:26;;;;;;;11.07;7.67;;;;;;;14.54;98.49;100336.38;4998239;28;20256;-74
2021/07/30 00:09:53;;;;;;;7.77;5.63;;;;;;;14.57;100.00;100333.63;5001434;28;20236;-74
2021/07/30 00:12:19;;;;;;;7.57;4.73;;;;;;;14.52;99.99;100325.13;5003750;28;20212;-74
2021/07/30 00:14:46;;;;;;;4.97;3.93;;;;;;;14.41;98.38;100328.25;4998793;28;20208;-74
2021/07/30 00:17:13;;;;;;;3.47;3.13;;;;;;;14.43;100.00;100330.81;5008923;28;21058;-73
2021/07/30 00:19:39;;;;;;;10.30;6.93;;;;;;;14.38;99.37;100325.75;4998283;28;20200;-74
2021/07/30 00:22:05;;;;;;;13.30;8.77;;;;;;;14.40;100.00;100326.53;4995859;28;20214;-72
2021/07/30 00:24:33;;;;;;;8.43;5.47;;;;;;;14.33;100.00;100331.22;4994185;28;20204;-73
2021/07/30 00:26:59;;;;;;;12.77;8.87;;;;;;;14.34;100.00;100327.69;4999076;28;20222;-73
2021/07/30 00:29:26;;;;;;;5.30;4.30;;;;;;;14.33;100.00;100327.75;4996246;28;20197;-73
2021/07/30 00:31:52;;;;;;;3.73;3.17;;;;;;;14.30;100.00;100320.88;5002347;28;20208;-72
2021/07/30 00:34:18;;;;;;;4.70;3.33;;;;;;;14.18;100.00;100327.53;5000244;28;20313;-75
2021/07/30 00:36:45;;;;;;;4.27;3.13;;;;;;;14.09;100.00;100325.34;5002097;28;20319;-74
2021/07/30 00:39:11;;;;;;;4.60;2.93;;;;;;;14.15;100.00;100324.19;4996729;28;20210;-73
2021/07/30 00:41:40;;;;;;;3.80;3.37;;;;;;;14.07;100.00;100324.56;5004338;28;20220;-73
2021/07/30 00:44:06;;;;;;;8.60;6.23;;;;;;;14.01;100.00;100322.19;4988474;28;20207;-73
2021/07/30 00:46:33;;;;;;;11.57;7.70;;;;;;;13.98;100.00;100330.19;5002795;28;20255;-75
2021/07/30 00:49:00;;;;;;;7.23;4.30;;;;;;;13.92;99.75;100322.63;4999133;28;20202;-74
2021/07/30 00:51:27;;;;;;;3.17;2.87;;;;;;;13.90;99.82;100322.69;4996801;28;20547;-75
2021/07/30 00:53:54;;;;;;;5.73;3.07;;;;;;;13.92;100.00;100320.00;4999922;28;20918;-75
2021/07/30 00:56:20;;;;;;;5.33;3.40;;;;;;;13.84;100.00;100325.56;4997962;28;20226;-75
2021/07/30 00:58:49;;;;;;;3.53;2.97;;;;;;;13.89;100.00;100325.38;4997627;28;20199;-75
2021/07/30 01:01:16;;;;;;;6.27;3.47;;;;;;;13.90;100.00;100325.31;4994788;28;20262;-75
2021/07/30 01:03:43;;;;;;;3.00;2.70;;;;;;;13.77;100.00;100321.53;4998875;28;20210;-75
2021/07/30 01:06:09;;;;;;;3.07;2.77;;;;;;;13.78;100.00;100318.84;4996273;28;20746;-75
2021/07/30 01:08:36;;;;;;;3.30;3.00;;;;;;;13.80;100.00;100317.00;5000430;28;20222;-75
2021/07/30 01:11:02;;;;;;;4.60;3.17;;;;;;;13.72;100.00;100311.25;4996541;28;20686;-75
2021/07/30 01:13:29;;;;;;;4.10;2.80;;;;;;;13.67;100.00;100314.97;4983940;28;20697;-75
2021/07/30 01:15:57;;;;;;;3.77;3.00;;;;;;;13.61;100.00;100305.63;5001701;28;20239;-75
2021/07/30 01:18:23;;;;;;;3.63;3.10;;;;;;;13.62;100.00;100307.34;5000993;28;20245;-75
2021/07/30 01:21:02;;;;;;;3.10;2.80;;;;;;;13.60;100.00;100304.78;4997933;28;20213;-74
2021/07/30 01:23:30;;;;;;;3.80;2.90;;;;;;;13.67;100.00;100312.38;5003563;28;20594;-75
2021/07/30 01:25:56;;;;;;;5.70;3.20;;;;;;;13.57;100.00;100304.91;5000880;28;20207;-75
2021/07/30 01:28:22;;;;;;;4.17;2.97;;;;;;;13.52;100.00;100306.03;5001392;28;20231;-75
2021/07/30 01:30:49;;;;;;;5.20;3.43;;;;;;;13.47;100.00;100310.63;5003507;28;20214;-75
2021/07/30 01:33:15;;;;;;;4.17;3.33;;;;;;;13.43;100.00;100310.75;4999531;28;20731;-75
2021/07/30 01:35:41;;;;;;;3.60;3.03;;;;;;;13.42;100.00;100306.44;5001976;28;20210;-75
2021/07/30 01:38:09;;;;;;;4.27;3.20;;;;;;;13.35;100.00;100323.34;5001330;28;20312;-74
2021/07/30 01:40:36;;;;;;;3.23;2.93;;;;;;;13.43;100.00;100312.53;5007908;28;20603;-75
2021/07/30 01:43:03;;;;;;;7.20;3.33;;;;;;;13.43;100.00;100309.91;4995383;28;20685;-75
2021/07/30 01:45:29;;;;;;;9.03;3.47;;;;;;;13.43;100.00;100309.91;4996427;28;20201;-75
2021/07/30 01:47:56;;;;;;;4.20;3.10;;;;;;;13.54;100.00;100309.44;5003138;28;20239;-75
2021/07/30 01:50:22;;;;;;;4.53;3.40;;;;;;;13.43;100.00;100307.28;5002306;28;20289;-75
2021/07/30 01:52:48;;;;;;;3.67;2.93;;;;;;;13.50;100.00;100311.34;5004937;28;20282;-74
2021/07/30 01:55:15;;;;;;;4.43;3.10;;;;;;;13.25;100.00;100320.22;5001269;28;20205;-75
2021/07/30 01:57:42;;;;;;;3.63;3.00;;;;;;;13.31;100.00;100318.25;4996111;28;20251;-75
2021/07/30 02:00:10;;;;;;;5.93;3.20;;;;;;;13.27;100.00;100320.16;4998105;28;20211;-75
2021/07/30 02:02:41;;;;;;;4.10;3.10;;;;;;;13.22;100.00;100317.72;5007513;28;20203;-75
2021/07/30 02:05:08;;;;;;;4.17;2.97;;;;;;;13.11;100.00;100317.31;4998193;28;20216;-75
2021/07/30 02:07:36;;;;;;;9.13;3.70;;;;;;;13.21;100.00;100315.19;5002391;28;20596;-75
2021/07/30 02:10:03;;;;;;;4.43;3.00;;;;;;;13.25;100.00;100317.59;4999333;28;20212;-74
2021/07/30 02:12:29;;;;;;;4.47;3.07;;;;;;;13.18;100.00;100315.31;5008156;28;20196;-75
2021/07/30 02:14:56;;;;;;;4.20;3.03;;;;;;;13.13;100.00;100320.72;5002041;28;20217;-75
2021/07/30 02:17:22;;;;;;;5.67;3.40;;;;;;;13.14;100.00;100316.31;5003754;28;20239;-74
2021/07/30 02:19:48;;;;;;;5.50;2.93;;;;;;;13.17;100.00;100314.44;5005434;28;20210;-76
2021/07/30 02:22:15;;;;;;;4.20;3.00;;;;;;;13.11;100.00;100319.09;5004806;28;20780;-77
2021/07/30 02:24:41;;;;;;;3.33;2.87;;;;;;;13.03;100.00;100319.41;5000289;28;20567;-76
2021/07/30 02:27:07;;;;;;;4.40;3.10;;;;;;;13.17;100.00;100314.44;5000114;28;20661;-76
2021/07/30 02:29:34;;;;;;;4.80;3.13;;;;;;;13.08;100.00;100312.22;5007975;28;20617;-75
2021/07/30 02:32:01;;;;;;;4.70;3.00;;;;;;;13.12;100.00;100316.41;4999068;28;20233;-74
2021/07/30 02:34:28;;;;;;;4.30;3.00;;;;;;;13.11;100.00;100316.47;4996111;28;20202;-75
2021/07/30 02:36:54;;;;;;;5.10;3.03;;;;;;;13.11;100.00;100321.72;4998848;28;20631;-75
2021/07/30 02:39:21;;;;;;;4.03;2.93;;;;;;;13.02;100.00;100320.31;5005720;28;20750;-74
2021/07/30 02:41:47;;;;;;;3.37;2.60;;;;;;;12.90;100.00;100321.66;4998695;28;20200;-75
2021/07/30 02:44:13;;;;;;;5.13;3.13;;;;;;;12.88;100.00;100326.13;5002120;28;20216;-75
2021/07/30 02:46:40;;;;;;;3.47;3.00;;;;;;;13.03;100.00;100319.41;4991081;28;20545;-74
2021/07/30 02:49:07;;;;;;;3.33;3.03;;;;;;;13.07;100.00;100321.84;5003218;28;20338;-74
2021/07/30 02:51:34;;;;;;;4.53;3.30;;;;;;;12.97;100.00;100328.34;5003582;28;20309;-74
2021/07/30 02:54:00;;;;;;;3.47;2.97;;;;;;;13.00;100.00;100320.38;4996802;28;20215;-75
2021/07/30 02:56:26;;;;;;;3.93;3.10;;;;;;;13.14;100.00;100319.81;4995921;28;20593;-75
2021/07/30 02:58:53;;;;;;;5.80;3.20;;;;;;;13.13;100.00;100330.34;5000699;28;20292;-74
2021/07/30 03:01:19;;;;;;;4.17;3.20;;;;;;;13.07;100.00;100334.06;5007587;28;20497;-74
2021/07/30 03:03:45;;;;;;;4.30;2.83;;;;;;;13.10;100.00;100333.09;4995307;28;20251;-74
2021/07/30 03:06:13;;;;;;;4.23;3.20;;;;;;;13.11;100.00;100326.94;4996750;28;20223;-75
2021/07/30 03:08:39;;;;;;;3.97;3.10;;;;;;;13.11;100.00;100327.78;4996989;28;20511;-75
2021/07/30 03:11:06;;;;;;;4.13;3.37;;;;;;;13.17;100.00;100330.13;4998405;28;20212;-75
2021/07/30 03:13:32;;;;;;;4.03;3.20;;;;;;;13.03;100.00;100330.72;4982631;28;20204;-75
2021/07/30 03:15:59;;;;;;;3.27;2.97;;;;;;;13.11;100.00;100324.34;5002523;28;20931;-74
2021/07/30 03:18:27;;;;;;;4.17;3.03;;;;;;;13.11;100.00;100321.72;4998152;28;20212;-75
2021/07/30 03:20:53;;;;;;;5.87;3.43;;;;;;;13.15;100.00;100323.28;5002318;28;20561;-75
2021/07/30 03:23:21;;;;;;;3.93;3.50;;;;;;;13.05;100.00;100317.56;4999179;28;20206;-74
2021/07/30 03:25:47;;;;;;;4.73;3.40;;;;;;;13.17;100.00;100321.44;5001610;28;20568;-74
2021/07/30 03:28:14;;;;;;;3.67;3.27;;;;;;;13.20;100.00;100318.72;5000567;28;20225;-75
2021/07/30 03:30:40;;;;;;;4.00;3.17;;;;;;;13.31;100.00;100318.25;4998697;28;20213;-75
2021/07/30 03:33:06;;;;;;;4.03;3.40;;;;;;;13.18;100.00;100324.00;5003281;28;20724;-75
2021/07/30 03:35:33;;;;;;;3.53;3.10;;;;;;;13.05;100.00;100323.66;4995827;28;20226;-74
2021/07/30 03:37:59;;;;;;;4.37;3.10;;;;;;;13.14;100.00;100324.19;4995523;28;20660;-75
2021/07/30 03:40:27;;;;;;;5.63;3.83;;;;;;;13.20;100.00;100321.31;4999284;28;20202;-74
2021/07/30 03:42:54;;;;;;;3.97;3.53;;;;;;;13.33;100.00;100319.94;5007633;28;20853;-75
2021/07/30 03:45:20;;;;;;;4.03;3.27;;;;;;;13.27;100.00;100325.38;4997406;28;20772;-74
2021/07/30 03:47:46;;;;;;;4.63;3.40;;;;;;;13.33;100.00;100327.78;5003676;28;20318;-74
2021/07/30 03:50:13;;;;;;;4.57;3.70;;;;;;;13.29;100.00;100323.53;4982729;28;20205;-74
2021/07/30 03:52:39;;;;;;;5.63;2.97;;;;;;;13.24;100.00;100333.34;4998373;28;20223;-74
2021/07/30 03:55:07;;;;;;;3.80;3.20;;;;;;;13.18;100.00;100333.63;4999162;28;20417;-75
2021/07/30 03:57:35;;;;;;;4.33;3.00;;;;;;;13.13;100.00;100328.56;5000616;28;20233;-75
2021/07/30 04:00:01;;;;;;;3.93;3.20;;;;;;;13.39;100.00;100332.75;4997116;28;20687;-74
2021/07/30 04:02:27;;;;;;;6.97;3.83;;;;;;;13.34;100.00;100334.72;4999948;28;20208;-74
2021/07/30 04:04:54;;;;;;;5.20;3.50;;;;;;;13.25;100.00;100333.31;5002497;28;20638;-74
2021/07/30 04:07:20;;;;;;;3.47;3.17;;;;;;;13.38;100.00;100344.13;4997805;28;20292;-74
2021/07/30 04:09:46;;;;;;;4.73;3.53;;;;;;;13.28;100.00;100342.81;4983341;28;20212;-74
2021/07/30 04:12:13;;;;;;;4.17;3.60;;;;;;;13.39;100.00;100348.47;4999970;28;21060;-74
2021/07/30 04:14:40;;;;;;;10.60;3.30;;;;;;;13.44;100.00;100343.03;5000658;28;20216;-74
2021/07/30 04:17:08;;;;;;;4.70;3.40;;;;;;;13.38;100.00;100344.13;4996053;28;20673;-74
2021/07/30 04:19:34;;;;;;;5.27;3.47;;;;;;;13.41;100.00;100345.78;5002622;28;20206;-75
2021/07/30 04:22:00;;;;;;;4.47;3.60;;;;;;;13.57;100.00;100356.47;4996711;28;20237;-74
2021/07/30 04:24:27;;;;;;;4.70;3.33;;;;;;;13.67;100.00;100349.03;4998831;28;20217;-74
2021/07/30 04:26:53;;;;;;;4.63;3.17;;;;;;;13.61;100.00;100355.41;4996217;28;20252;-74
2021/07/30 04:29:20;;;;;;;3.67;2.90;;;;;;;13.74;100.00;100347.88;5003705;28;20291;-75
2021/07/30 04:31:47;;;;;;;5.33;3.60;;;;;;;13.87;100.00;100353.44;4992551;28;20199;-74
2021/07/30 04:34:14;;;;;;;3.50;3.20;;;;;;;13.94;100.00;100344.38;4993259;28;20296;-75
2021/07/30 04:36:40;;;;;;;5.47;3.53;;;;;;;14.07;100.00;100348.16;4998610;28;20687;-74
2021/07/30 04:39:07;;;;;;;6.27;3.27;;;;;;;13.90;97.45;100354.13;5001213;28;20409;-74
2021/07/30 04:41:34;;;;;;;5.13;3.43;;;;;;;14.10;100.00;100355.03;4999766;28;20220;-75
2021/07/30 04:44:00;;;;;;;4.27;3.27;;;;;;;14.08;99.50;100352.47;4999162;28;20293;-75
2021/07/30 04:46:27;;;;;;;4.33;3.00;;;;;;;14.26;100.00;100356.00;4992874;28;20236;-75
2021/07/30 04:48:54;;;;;;;3.40;3.10;;;;;;;14.23;97.17;100357.94;4996776;28;20612;-75
2021/07/30 04:51:21;;;;;;;3.60;3.30;;;;;;;14.36;96.18;100361.69;5003967;28;20597;-75
2021/07/30 04:53:49;;;;;;;3.70;3.10;;;;;;;14.43;95.20;100360.50;4995692;28;20203;-74
2021/07/30 04:56:19;;;;;;;3.43;3.13;;;;;;;14.69;99.62;100358.47;4998510;28;20259;-75
2021/07/30 04:58:45;;;;;;;3.93;3.10;;;;;;;14.64;92.82;100363.09;4993403;28;20210;-74
2021/07/30 05:01:12;;;;;;;3.77;3.00;;;;;;;14.76;92.31;100357.25;5003354;28;20296;-74
2021/07/30 05:03:38;;;;;;;4.37;3.00;;;;;;;14.85;91.13;100362.03;4997122;28;20198;-75
2021/07/30 05:06:16;;;;;;;3.23;2.80;;;;;;;14.99;92.18;100361.38;4994325;28;20224;-75
2021/07/30 05:08:43;;;;;;;3.07;2.77;;;;;;;15.07;92.39;100361.84;4996606;28;20230;-75
2021/07/30 05:11:10;;;;;;;3.23;2.93;;;;;;;15.16;91.09;100355.28;4994385;28;20206;-74
2021/07/30 05:13:37;;;;;;;4.57;3.00;;;;;;;15.28;91.06;100359.09;4999172;28;20327;-75
2021/07/30 05:16:05;;;;;;;3.47;2.60;;;;;;;15.40;89.87;100362.88;4995154;28;20231;-74
2021/07/30 05:18:32;;;;;;;3.70;2.83;;;;;;;15.45;88.13;100358.25;4999573;28;20204;-75
2021/07/30 05:20:58;;;;;;;6.50;2.90;;;;;;;15.50;86.96;100358.88;4996881;28;20220;-75
2021/07/30 05:23:26;;;;;;;3.20;2.30;;;;;;;15.62;88.64;100357.38;5002414;28;20243;-75
2021/07/30 05:25:53;;;;;;;4.17;2.67;;;;;;;15.73;88.19;100352.44;4995580;28;20223;-74
2021/07/30 05:28:19;;;;;;;4.20;3.00;;;;;;;15.87;88.07;100352.59;5001093;28;20308;-75
2021/07/30 05:30:46;;;;;;;2.70;2.27;;;;;;;15.89;83.82;100353.34;4996373;28;20205;-74
2021/07/30 05:33:12;;;;;;;5.87;2.53;;;;;;;15.99;83.25;100366.88;5002459;28;20233;-75
2021/07/30 05:35:39;;;;;;;3.53;2.50;;;;;;;16.06;82.28;100359.50;4997387;28;20208;-74
2021/07/30 05:38:05;;;;;;;2.57;2.20;;;;;;;16.20;84.53;100351.72;4996586;28;20228;-75
2021/07/30 05:40:33;;;;;;;4.00;2.57;;;;;;;16.32;84.65;100359.88;4997140;28;20249;-74
2021/07/30 05:42:59;;;;;;;4.57;2.30;;;;;;;16.40;82.65;100360.31;5001279;28;20316;-74
2021/07/30 05:45:26;;;;;;;3.17;2.40;;;;;;;16.44;80.97;100365.31;5001996;28;20217;-74
2021/07/30 05:47:52;;;;;;;3.23;2.20;;;;;;;16.52;80.12;100367.53;4996841;28;20311;-74
2021/07/30 05:50:18;;;;;;;3.40;2.23;;;;;;;16.61;78.94;100364.41;4995451;28;20212;-74
2021/07/30 05:52:45;;;;;;;7.47;2.37;;;;;;;16.73;78.79;100367.28;4995521;28;20258;-74
2021/07/30 05:55:11;;;;;;;4.73;2.20;;;;;;;16.82;77.60;100372.03;5003913;28;20204;-74
2021/07/30 05:57:39;;;;;;;4.07;2.30;;;;;;;16.91;76.86;100366.28;4994687;28;20220;-74
2021/07/30 06:00:07;;;;;;;3.80;2.13;;;;;;;16.99;76.92;100364.06;5007481;28;20236;-74
2021/07/30 06:02:36;;;;;;;2.20;2.00;;;;;;;17.08;76.02;100367.97;4998959;28;20235;-74
2021/07/30 06:05:02;;;;;;;3.93;2.40;;;;;;;17.21;75.08;100368.94;5004962;28;20223;-74
2021/07/30 06:07:29;;;;;;;2.47;2.27;;;;;;;17.34;74.67;100362.94;5001907;28;20227;-74
2021/07/30 06:09:55;;;;;;;4.90;2.10;;;;;;;17.42;74.53;100363.34;5002557;28;20233;-74
2021/07/30 06:12:21;;;;;;;6.67;2.40;;;;;;;17.53;75.00;100368.00;5001805;28;20213;-74
2021/07/30 06:14:49;;;;;;;8.77;2.20;;;;;;;17.60;72.80;100370.16;5000576;28;20213;-74
2021/07/30 06:17:16;;;;;;;4.33;1.80;;;;;;;17.77;72.38;100369.16;5004084;28;20232;-76
2021/07/30 06:19:42;;;;;;;4.37;2.17;;;;;;;17.89;70.98;100362.34;5002912;28;20193;-76
2021/07/30 06:22:09;;;;;;;3.50;2.27;;;;;;;17.94;71.53;100364.69;4999098;28;20501;-76
2021/07/30 06:24:36;;;;;;;3.50;2.43;;;;;;;18.03;70.15;100365.91;4996789;28;20200;-75
2021/07/30 06:27:03;;;;;;;5.60;2.00;;;;;;;18.14;71.33;100363.47;4998449;28;20331;-74
2021/07/30 06:29:30;;;;;;;2.13;1.70;;;;;;;18.25;71.54;100361.00;4999253;28;20228;-74
2021/07/30 06:31:57;;;;;;;3.43;1.77;;;;;;;18.30;68.39;100361.56;5007407;28;20628;-74
2021/07/30 06:34:24;;;;;;;2.87;1.73;;;;;;;18.38;67.50;100368.16;4996706;28;20566;-74
2021/07/30 06:36:54;;;;;;;4.53;2.00;;;;;;;18.46;66.11;100372.00;4996448;28;20236;-74
2021/07/30 06:39:21;;;;;;;4.07;2.07;;;;;;;18.47;67.02;100370.22;5003711;28;20685;-74
2021/07/30 06:41:47;;;;;;;3.53;1.73;;;;;;;18.53;67.08;100372.47;5000949;28;20200;-74
2021/07/30 06:44:13;;;;;;;4.97;2.00;;;;;;;18.66;67.81;100362.84;5000628;28;20208;-74
2021/07/30 06:46:40;;;;;;;3.33;1.83;;;;;;;18.71;67.05;100370.44;5017180;23;20203;-73
2021/07/30 06:49:07;;;;;;;3.80;1.90;;;;;;;18.81;66.29;100357.50;5000899;28;20227;-73
2021/07/30 06:51:34;;;;;;;2.57;2.10;;;;;;;18.92;68.57;100363.78;4999939;28;20209;-73
2021/07/30 06:54:00;;;;;;;2.90;1.87;;;;;;;19.03;65.96;100363.13;4997647;28;20224;-73
2021/07/30 06:56:27;;;;;;;2.80;1.80;;;;;;;19.09;65.01;100360.06;4998357;28;20624;-73
2021/07/30 06:58:53;;;;;;;2.70;1.90;;;;;;;19.23;64.88;100363.59;5008897;28;20287;-73
2021/07/30 07:01:20;;;;;;;2.90;1.77;;;;;;;19.24;65.80;100357.34;4997293;28;20213;-73
2021/07/30 07:03:46;;;;;;;2.70;2.03;;;;;;;19.37;65.29;100352.09;5008849;28;20936;-73
2021/07/30 07:06:15;;;;;;;2.77;1.77;;;;;;;19.43;63.15;100362.25;4997381;28;20211;-73
2021/07/30 07:08:42;;;;;;;3.20;1.90;;;;;;;19.47;62.90;100355.78;5001875;28;20228;-72
2021/07/30 07:11:08;;;;;;;2.97;1.87;;;;;;;19.55;63.14;100348.19;4999620;28;20200;-71
2021/07/30 07:13:35;;;;;;;4.00;1.90;;;;;;;19.67;63.99;100351.81;5002583;28;20331;-71
2021/07/30 07:16:01;;;;;;;6.23;2.13;;;;;;;19.68;61.83;100353.47;5001050;28;20682;-71
2021/07/30 07:18:27;;;;;;;3.57;1.90;;;;;;;19.74;63.57;100357.56;4999806;28;20229;-72
2021/07/30 07:20:57;;;;;;;2.53;1.73;;;;;;;19.80;62.50;100349.19;4999828;28;20209;-71
2021/07/30 07:23:25;;;;;;;2.57;1.90;;;;;;;19.94;62.57;100348.25;4999606;28;20622;-71
2021/07/30 07:25:51;;;;;;;3.77;1.70;;;;;;;19.99;61.54;100346.13;4999644;28;20205;-72
2021/07/30 07:28:18;;;;;;;6.17;1.83;;;;;;;20.00;60.46;100346.00;4998908;28;20430;-71
2021/07/30 07:30:44;;;;;;;2.57;1.83;;;;;;;20.05;59.04;100353.59;5003255;28;20224;-72
2021/07/30 07:33:10;;;;;;;2.43;1.90;;;;;;;20.12;60.99;100346.97;4995636;28;20759;-72
2021/07/30 07:35:37;;;;;;;2.97;1.97;;;;;;;20.24;59.19;100346.09;5001714;28;20205;-72
2021/07/30 07:38:05;;;;;;;1.93;1.57;;;;;;;20.34;60.34;100342.78;4996081;28;20228;-71
2021/07/30 07:40:33;;;;;;;2.07;1.60;;;;;;;20.39;59.66;100335.34;5008778;28;20212;-72
2021/07/30 07:43:02;;;;;;;2.70;1.40;;;;;;;20.51;57.22;100339.75;4995776;28;20216;-71
2021/07/30 07:45:28;;;;;;;2.43;1.80;;;;;;;20.55;58.74;100343.03;5001059;28;20296;-72
2021/07/30 07:47:55;;;;;;;3.30;1.70;;;;;;;20.61;58.95;100337.28;4997987;28;20228;-72
2021/07/30 07:50:22;;;;;;;3.87;1.60;;;;;;;20.76;60.70;100332.72;5000176;28;20252;-71
2021/07/30 07:52:48;;;;;;;3.73;1.70;;;;;;;20.82;58.15;100340.19;4999850;28;20208;-71
2021/07/30 07:55:15;;;;;;;1.77;1.53;;;;;;;20.91;57.15;100342.16;4997197;28;20233;-72
2021/07/30 07:57:43;;;;;;;2.97;1.90;;;;;;;20.96;57.18;100337.38;5004522;28;20728;-72
2021/07/30 08:00:11;;;;;;;2.60;1.70;;;;;;;21.06;56.49;100339.34;4999478;28;20213;-71
2021/07/30 08:02:41;;;;;;;1.60;1.50;;;;;;;21.07;55.99;100336.59;5000241;28;20219;-71
2021/07/30 08:05:08;;;;;;;2.03;1.47;;;;;;;21.14;55.54;100339.59;4995458;28;20240;-71
2021/07/30 08:07:35;;;;;;;5.27;2.20;;;;;;;21.14;54.46;100342.25;5005832;28;20232;-72
2021/07/30 08:10:01;;;;;;;3.97;1.63;;;;;;;21.24;56.89;100331.81;4994974;28;20239;-72
2021/07/30 08:12:28;;;;;;;1.77;1.57;;;;;;;21.25;54.66;100326.41;5002474;28;20573;-71
2021/07/30 08:14:55;;;;;;;2.10;1.60;;;;;;;21.21;56.06;100322.28;4996252;28;20201;-71
2021/07/30 08:17:22;;;;;;;3.70;1.60;;;;;;;21.15;52.86;100330.69;5006397;28;20228;-71
2021/07/30 08:19:50;;;;;;;3.83;1.53;;;;;;;21.34;56.61;100322.22;4995077;28;20199;-72
2021/07/30 08:22:17;;;;;;;3.43;1.37;;;;;;;21.32;55.08;100327.63;4993513;28;20657;-72
2021/07/30 08:24:44;;;;;;;2.60;1.50;;;;;;;21.48;53.93;100329.16;4999449;28;20204;-72
2021/07/30 08:27:10;;;;;;;2.93;1.63;;;;;;;21.58;53.45;100326.63;5003237;28;20279;-72
2021/07/30 08:29:37;;;;;;;1.73;1.33;;;;;;;21.63;53.88;100316.50;4999547;28;20231;-72
2021/07/30 08:32:05;;;;;;;4.50;1.60;;;;;;;21.60;53.17;100322.91;4982174;28;20699;-72
2021/07/30 08:34:32;;;;;;;5.27;1.60;;;;;;;21.83;52.47;100317.59;5001220;28;20276;-72
2021/07/30 08:36:58;;;;;;;2.17;1.37;;;;;;;22.00;52.63;100329.53;4992701;28;20720;-72
2021/07/30 08:39:24;;;;;;;2.27;1.47;;;;;;;21.92;51.78;100323.03;5001486;28;20209;-72
2021/07/30 08:41:52;;;;;;;2.80;1.57;;;;;;;21.95;51.58;100321.94;4992389;28;20201;-72
2021/07/30 08:44:19;;;;;;;2.83;1.80;;;;;;;22.01;52.51;100316.16;4998082;28;20477;-72
2021/07/30 08:46:45;;;;;;;3.97;1.60;;;;;;;22.10;52.88;100309.28;4994112;28;20216;-71
2021/07/30 08:49:13;;;;;;;2.77;1.60;;;;;;;22.25;54.33;100299.22;5005372;28;20216;-72
2021/07/30 08:51:42;;;;;;;4.63;1.57;;;;;;;22.46;53.67;100305.50;4995306;28;20212;-72
2021/07/30 08:54:09;;;;;;;3.43;1.57;;;;;;;22.45;53.65;100309.13;5001302;28;20544;-72
2021/07/30 08:56:37;;;;;;;1.57;1.30;;;;;;;22.41;50.86;100307.69;4998532;28;20221;-72
2021/07/30 08:59:03;;;;;;;3.60;1.73;;;;;;;22.53;51.77;100313.78;4999237;28;20211;-72
2021/07/30 09:01:30;;;;;;;1.50;1.40;;;;;;;22.53;50.90;100313.78;4997347;28;20287;-72
2021/07/30 09:03:56;;;;;;;3.27;1.50;;;;;;;22.66;50.40;100317.16;4995304;28;20575;-72
2021/07/30 09:06:25;;;;;;;2.50;1.43;;;;;;;22.68;50.56;100307.22;5005668;28;20206;-72
2021/07/30 09:09:07;;;;;;;2.25;1.45;;;;;;;22.83;50.15;100309.59;4993345;28;20208;-72
2021/07/30 09:11:36;;;;;;;2.33;1.50;;;;;;;22.93;50.87;100321.16;5001462;28;20215;-72
2021/07/30 09:14:04;;;;;;;1.52;1.38;;;;;;;22.92;50.50;100311.50;4995234;28;20212;-72
2021/07/30 09:16:31;;;;;;;2.80;1.85;;;;;;;22.73;49.76;100304.22;4999343;28;20204;-72
2021/07/30 09:19:05;;;;;;;3.03;1.73;;;;;;;22.96;50.67;100301.47;4994591;28;20209;-72
2021/07/30 09:21:35;;;;;;;4.20;1.55;;;;;;;23.37;48.32;100316.59;5002332;28;20617;-72
2021/07/30 09:24:03;;;;;;;1.98;1.40;;;;;;;23.54;48.12;100306.38;4997723;28;20288;-72
2021/07/30 09:26:36;;;;;;;1.85;1.60;;;;;;;23.42;49.55;100305.59;4994432;28;20749;-72
2021/07/30 09:29:05;;;;;;;2.05;1.60;;;;;;;23.35;48.16;100312.41;5002015;28;20204;-72
2021/07/30 09:31:43;;;;;;;2.83;1.50;;;;;;;23.62;52.12;100299.41;4994510;28;20821;-72
2021/07/30 09:34:28;;;;;;;1.73;1.60;;;;;;;23.63;47.51;100295.75;4995154;28;20208;-72
2021/07/30 09:36:58;;;;;;;4.00;1.80;;;;;;;23.62;48.13;100296.75;4997513;28;20242;-72
2021/07/30 09:39:27;;;;;;;2.03;1.75;;;;;;;23.61;49.25;100287.06;5002746;28;20311;-72
2021/07/30 09:42:01;;;;;;;3.67;1.80;;;;;;;23.60;48.20;100287.19;4999602;28;20308;-72
2021/07/30 09:44:28;;;;;;;1.60;1.40;;;;;;;23.83;48.79;100284.41;5003160;28;20209;-72
2021/07/30 09:47:12;;;;;;;4.20;1.30;;;;;;;23.66;48.63;100289.34;5001758;28;20291;-72
2021/07/30 09:49:52;;;;;;;4.30;1.50;;;;;;;23.83;47.57;100285.22;4998811;28;20523;-72
2021/07/30 09:52:22;;;;;;;2.40;1.50;;;;;;;24.00;46.38;100278.44;5005279;28;20265;-72
2021/07/30 09:54:54;;;;;;;3.35;1.60;;;;;;;24.03;49.24;100272.84;4997352;28;20219;-72
2021/07/30 09:57:22;;;;;;;1.98;1.20;;;;;;;23.81;47.62;100271.22;5005513;28;20231;-72
2021/07/30 09:59:50;;;;;;;3.72;1.55;;;;;;;23.73;47.14;100273.69;4999435;28;20444;-72
2021/07/30 10:02:19;;;;;;;2.72;1.25;;;;;;;23.94;48.84;100269.16;5009077;28;20746;-72
2021/07/30 10:04:48;;;;;;;2.08;1.58;;;;;;;23.85;47.53;100270.00;4999059;28;20298;-72
2021/07/30 10:07:16;;;;;;;3.30;1.70;;;;;;;23.98;46.17;100272.41;5001453;28;20230;-72
2021/07/30 10:09:47;;;;;;;2.30;1.40;;;;;;;23.97;48.56;100263.59;4995854;28;20221;-72
2021/07/30 10:12:14;;;;;;;2.35;1.42;;;;;;;23.67;46.87;100268.88;5003416;28;20683;-72
2021/07/30 10:14:42;;;;;;;3.88;1.52;;;;;;;23.53;45.91;100270.91;5002949;28;20232;-72
2021/07/30 10:17:10;;;;;;;2.15;1.33;;;;;;;23.48;48.85;100269.63;4998932;28;20320;-72
2021/07/30 10:19:37;;;;;;;2.22;1.45;;;;;;;23.35;46.48;100276.00;4991102;28;20226;-72
2021/07/30 10:22:07;;;;;;;2.40;1.60;;;;;;;23.36;46.53;100280.38;4995974;28;20299;-72
2021/07/30 10:24:40;;;;;;;2.92;1.63;;;;;;;23.55;47.76;100262.81;5003248;28;20219;-72
2021/07/30 10:27:09;;;;;;;1.92;1.58;;;;;;;23.92;48.06;100262.28;4996122;28;20229;-72
2021/07/30 10:30:07;;;;;;;3.22;1.55;;;;;;;24.11;47.56;100261.50;5002385;28;20580;-72
2021/07/30 10:32:44;;;;;;;2.85;1.60;;;;;;;24.22;47.78;100264.06;5001539;28;20208;-72
2021/07/30 10:35:12;;;;;;;2.17;1.60;;;;;;;24.21;46.33;100265.03;4997609;28;20212;-72
2021/07/30 10:37:41;;;;;;;2.83;1.42;;;;;;;23.98;45.74;100251.09;5002230;28;20220;-72
2021/07/30 10:40:19;;;;;;;2.20;1.48;;;;;;;23.78;46.81;100244.81;4999743;28;20201;-72
2021/07/30 10:43:04;;;;;;;2.30;1.33;;;;;;;23.98;48.68;100248.44;5001857;28;20208;-72
2021/07/30 10:45:31;;;;;;;3.00;1.45;;;;;;;24.00;46.91;100239.31;4996290;28;20331;-72
2021/07/30 10:48:35;;;;;;;2.40;1.60;;;;;;;24.17;46.28;100245.81;5003692;28;20235;-72
2021/07/30 10:51:21;;;;;;;1.85;1.42;;;;;;;24.21;48.53;100242.88;5001117;28;20584;-72
2021/07/30 10:53:50;;;;;;;2.42;1.55;;;;;;;24.41;46.51;100235.75;4998912;28;20307;-72
2021/07/30 10:56:49;;;;;;;3.00;1.70;;;;;;;24.62;45.24;100231.16;4997218;28;20213;-72
2021/07/30 10:59:20;;;;;;;1.98;1.40;;;;;;;24.38;44.87;100226.22;4997263;28;20244;-72
2021/07/30 11:02:02;;;;;;;1.50;1.40;;;;;;;24.35;47.00;100215.84;5002983;28;20304;-72
2021/07/30 11:04:30;;;;;;;1.35;1.25;;;;;;;24.46;46.62;100225.53;5000252;28;20208;-72
2021/07/30 11:06:58;;;;;;;1.30;1.20;;;;;;;24.67;46.13;100220.91;5001234;28;21067;-72
2021/07/30 11:09:37;;;;;;;1.30;1.20;;;;;;;24.79;44.54;100221.63;4999201;28;20797;-72
2021/07/30 11:12:05;;;;;;;3.15;1.40;;;;;;;24.66;45.89;100224.59;4997666;28;20208;-72
2021/07/30 11:14:35;;;;;;;3.13;1.40;;;;;;;24.25;44.34;100228.31;5002134;28;20305;-72
2021/07/30 11:17:03;;;;;;;1.85;1.52;;;;;;;24.39;46.72;100225.22;4995899;28;20232;-72
2021/07/30 11:19:31;;;;;;;2.33;1.30;;;;;;;24.74;46.16;100221.19;5003850;28;20203;-72
2021/07/30 11:22:00;;;;;;;2.15;1.52;;;;;;;25.00;45.55;100216.13;4995389;28;20670;-72
2021/07/30 11:24:26;;;;;;;4.30;1.58;;;;;;;25.08;44.82;100212.72;4999903;28;20210;-72